createdAt,value
2018-10-06T00:00:09.555Z,65.58
2018-10-06T00:02:38.916Z,65.55
2018-10-06T00:05:08.523Z,64.82
2018-10-06T00:07:38.106Z,65.19
2018-10-06T00:10:07.631Z,65.50
2018-10-06T00:12:37.036Z,65.05
2018-10-06T00:15:06.335Z,64.81
2018-10-06T00:17:35.921Z,64.63
2018-10-06T00:20:05.358Z,64.54
2018-10-06T00:22:34.950Z,65.09
2018-10-06T00:25:04.352Z,64.45
2018-10-06T00:27:33.625Z,63.80
2018-10-06T00:30:02.879Z,65.55
2018-10-06T00:32:32.353Z,65.09
2018-10-06T00:35:01.551Z,65.56
2018-10-06T00:37:30.952Z,65.82
2018-10-06T00:40:00.251Z,65.25
2018-10-06T00:42:29.654Z,66.19
2018-10-06T00:44:59.055Z,65.76
2018-10-06T00:47:28.457Z,65.61
2018-10-06T00:49:57.859Z,65.03
2018-10-06T00:52:27.261Z,64.86
2018-10-06T00:54:56.666Z,65.18
2018-10-06T00:57:26.076Z,65.69
2018-10-06T00:59:55.362Z,66.07
2018-10-06T01:02:24.657Z,65.54
2018-10-06T01:04:54.073Z,65.32
2018-10-06T01:07:23.467Z,65.08
2018-10-06T01:09:52.809Z,65.60
2018-10-06T01:12:22.270Z,65.91
2018-10-06T01:14:51.798Z,65.41
2018-10-06T01:17:21.177Z,66.33
2018-10-06T01:19:50.578Z,65.47
2018-10-06T01:22:20.053Z,65.30
2018-10-06T01:24:49.366Z,66.05
2018-10-06T01:27:18.706Z,66.23
2018-10-06T01:29:48.085Z,66.15
2018-10-06T01:32:18.727Z,65.71
2018-10-06T01:34:48.118Z,66.46
2018-10-06T01:37:17.524Z,65.94
2018-10-06T01:39:46.774Z,66.38
2018-10-06T01:42:16.219Z,65.86
2018-10-06T01:44:46.133Z,65.78
2018-10-06T01:47:15.540Z,65.99
2018-10-06T01:49:45.062Z,65.40
2018-10-06T01:52:14.747Z,65.86
2018-10-06T01:54:44.210Z,67.35
2018-10-06T01:57:13.858Z,66.36
2018-10-06T01:59:43.363Z,66.08
2018-10-06T02:02:12.832Z,66.29
2018-10-06T02:04:42.240Z,65.79
2018-10-06T02:07:11.738Z,66.32
2018-10-06T02:09:41.280Z,65.97
2018-10-06T02:12:10.539Z,66.34
2018-10-06T02:14:39.864Z,66.30
2018-10-06T02:17:09.332Z,66.18
2018-10-06T02:19:38.680Z,66.34
2018-10-06T02:22:08.132Z,66.27
2018-10-06T02:24:37.404Z,67.15
2018-10-06T02:27:07.387Z,67.27
2018-10-06T02:29:36.694Z,66.89
2018-10-06T02:32:06.507Z,67.68
2018-10-06T02:34:36.114Z,67.35
2018-10-06T02:37:05.416Z,66.65
2018-10-06T02:39:34.873Z,66.40
2018-10-06T02:42:04.222Z,65.99
2018-10-06T02:44:33.722Z,65.78
2018-10-06T02:47:03.329Z,66.30
2018-10-06T02:49:32.808Z,66.66
2018-10-06T02:52:02.338Z,66.44
2018-10-06T02:54:31.842Z,66.71
2018-10-06T02:57:01.475Z,66.31
2018-10-06T02:59:30.782Z,66.37
2018-10-06T03:02:00.030Z,66.18
2018-10-06T03:04:29.653Z,66.57
2018-10-06T03:06:59.115Z,66.71
2018-10-06T03:09:28.558Z,66.31
2018-10-06T03:11:58.064Z,66.03
2018-10-06T03:14:27.571Z,65.98
2018-10-06T03:16:57.031Z,66.09
2018-10-06T03:19:26.570Z,65.87
2018-10-06T03:21:56.036Z,66.00
2018-10-06T03:24:25.303Z,66.33
2018-10-06T03:26:54.686Z,66.30
2018-10-06T03:29:24.285Z,66.02
2018-10-06T03:34:21.860Z,66.36
2018-10-06T03:36:51.262Z,66.40
2018-10-06T03:39:20.767Z,66.44
2018-10-06T03:41:50.224Z,66.54
2018-10-06T03:44:19.514Z,66.60
2018-10-06T03:46:48.868Z,66.28
2018-10-06T03:49:18.476Z,66.10
2018-10-06T03:51:47.723Z,66.26
2018-10-06T03:54:17.281Z,66.03
2018-10-06T03:56:46.741Z,66.37
2018-10-06T03:59:17.209Z,66.11
2018-10-06T04:01:46.612Z,66.09
2018-10-06T04:04:16.014Z,66.03
2018-10-06T04:06:45.312Z,66.77
2018-10-06T04:09:14.715Z,66.78
2018-10-06T04:11:44.220Z,67.50
2018-10-06T04:14:13.622Z,67.31
2018-10-06T04:16:42.854Z,67.06
2018-10-06T04:19:12.427Z,66.74
2018-10-06T04:21:47.765Z,66.76
2018-10-06T04:24:19.215Z,67.04
2018-10-06T04:26:48.617Z,67.80
2018-10-06T04:29:18.019Z,67.53
2018-10-06T04:31:47.424Z,67.28
2018-10-06T04:34:16.732Z,66.87
2018-10-06T04:36:46.326Z,67.20
2018-10-06T04:39:15.628Z,67.21
2018-10-06T04:41:45.024Z,66.68
2018-10-06T04:44:14.436Z,66.97
2018-10-06T04:46:43.831Z,66.76
2018-10-06T04:49:13.131Z,66.78
2018-10-06T04:51:42.430Z,66.93
2018-10-06T04:54:11.935Z,66.82
2018-10-06T04:56:41.160Z,66.65
2018-10-06T04:59:10.737Z,66.43
2018-10-06T05:01:40.141Z,66.32
2018-10-06T05:04:09.648Z,65.85
2018-10-06T05:06:40.286Z,65.93
2018-10-06T05:09:10.089Z,66.44
2018-10-06T05:11:39.528Z,66.62
2018-10-06T05:14:10.079Z,66.67
2018-10-06T05:16:39.731Z,66.42
2018-10-06T05:19:09.310Z,66.61
2018-10-06T05:21:38.938Z,66.52
2018-10-06T05:24:09.672Z,66.57
2018-10-06T05:26:39.073Z,66.47
2018-10-06T05:29:08.693Z,66.77
2018-10-06T05:31:38.038Z,66.63
2018-10-06T05:34:07.736Z,66.65
2018-10-06T05:36:37.263Z,66.64
2018-10-06T05:39:09.168Z,67.14
2018-10-06T05:41:38.726Z,66.97
2018-10-06T05:44:08.060Z,66.77
2018-10-06T05:46:37.702Z,66.60
2018-10-06T05:49:07.376Z,67.22
2018-10-06T05:51:36.882Z,67.42
2018-10-06T05:54:06.384Z,67.76
2018-10-06T05:56:35.846Z,67.63
2018-10-06T05:59:05.406Z,67.82
2018-10-06T06:01:34.793Z,67.81
2018-10-06T06:04:04.268Z,67.99
2018-10-06T06:06:33.834Z,68.23
2018-10-06T06:09:03.204Z,67.80
2018-10-06T06:11:32.672Z,67.74
2018-10-06T06:14:02.180Z,67.98
2018-10-06T06:16:31.820Z,68.12
2018-10-06T06:19:01.114Z,68.40
2018-10-06T06:21:30.725Z,68.45
2018-10-06T06:24:00.200Z,68.45
2018-10-06T06:26:29.632Z,69.29
2018-10-06T06:28:59.346Z,68.29
2018-10-06T06:31:28.730Z,68.09
2018-10-06T06:33:58.205Z,68.61
2018-10-06T06:36:27.648Z,68.33
2018-10-06T06:38:57.118Z,68.69
2018-10-06T06:41:26.657Z,68.42
2018-10-06T06:43:56.226Z,68.31
2018-10-06T06:46:25.664Z,68.39
2018-10-06T06:48:55.067Z,67.81
2018-10-06T06:51:24.525Z,68.34
2018-10-06T06:53:53.973Z,67.88
2018-10-06T06:56:23.576Z,69.05
2018-10-06T06:58:53.084Z,69.25
2018-10-06T07:01:23.614Z,69.15
2018-10-06T07:03:52.933Z,68.60
2018-10-06T07:06:22.518Z,69.23
2018-10-06T07:08:51.920Z,69.99
2018-10-06T07:11:21.526Z,68.96
2018-10-06T07:13:51.132Z,68.49
2018-10-06T07:16:20.601Z,68.25
2018-10-06T07:18:49.940Z,67.41
2018-10-06T07:21:19.441Z,67.21
2018-10-06T07:23:49.150Z,67.01
2018-10-06T07:26:18.763Z,66.56
2018-10-06T07:28:48.472Z,65.54
2018-10-06T07:31:17.901Z,64.79
2018-10-06T07:33:47.371Z,64.78
2018-10-06T07:36:16.772Z,62.84
2018-10-06T07:38:46.123Z,62.03
2018-10-06T07:41:16.703Z,62.33
2018-10-06T07:43:46.104Z,61.18
2018-10-06T07:46:15.566Z,60.31
2018-10-06T07:48:45.113Z,60.03
2018-10-06T07:51:14.721Z,58.48
2018-10-06T07:53:43.966Z,57.21
2018-10-06T07:56:13.425Z,58.01
2018-10-06T07:58:42.899Z,57.11
2018-10-06T08:01:12.224Z,57.47
2018-10-06T08:03:41.627Z,57.60
2018-10-06T08:06:11.078Z,57.73
2018-10-06T08:08:40.367Z,58.28
2018-10-06T08:11:09.836Z,57.60
2018-10-06T08:13:39.180Z,56.97
2018-10-06T08:16:08.738Z,55.87
2018-10-06T08:18:38.035Z,55.72
2018-10-06T08:21:07.437Z,55.38
2018-10-06T08:23:36.839Z,55.27
2018-10-06T08:26:12.898Z,54.44
2018-10-06T08:28:42.302Z,55.27
2018-10-06T08:31:11.597Z,54.93
2018-10-06T08:33:41.004Z,54.19
2018-10-06T08:36:10.405Z,51.26
2018-10-06T08:38:39.702Z,49.22
2018-10-06T08:41:08.999Z,46.82
2018-10-06T08:43:38.414Z,46.89
2018-10-06T08:46:07.909Z,44.17
2018-10-06T08:48:37.315Z,43.48
2018-10-06T08:51:07.017Z,42.87
2018-10-06T08:53:36.421Z,41.09
2018-10-06T08:56:06.139Z,40.47
2018-10-06T08:58:35.429Z,42.63
2018-10-06T09:01:04.948Z,40.48
2018-10-06T09:03:34.437Z,40.84
2018-10-06T09:06:03.901Z,40.57
2018-10-06T09:08:33.446Z,41.31
2018-10-06T09:11:02.924Z,41.15
2018-10-06T09:13:32.352Z,42.12
2018-10-06T09:16:01.922Z,40.75
2018-10-06T09:18:31.772Z,41.11
2018-10-06T09:21:01.099Z,40.77
2018-10-06T09:23:30.533Z,40.11
2018-10-06T09:26:00.078Z,41.83
2018-10-06T09:28:29.580Z,40.58
2018-10-06T09:30:59.701Z,40.43
2018-10-06T09:33:29.145Z,41.03
2018-10-06T09:35:58.606Z,40.41
2018-10-06T09:38:28.116Z,41.29
2018-10-06T09:40:58.638Z,41.71
2018-10-06T09:43:28.145Z,41.02
2018-10-06T09:45:57.749Z,42.00
2018-10-06T09:48:27.194Z,42.60
2018-10-06T09:50:56.667Z,41.72
2018-10-06T09:53:26.136Z,42.73
2018-10-06T09:55:55.664Z,40.93
2018-10-06T09:58:25.224Z,42.00
2018-10-06T10:01:00.203Z,41.28
2018-10-06T10:03:35.394Z,40.63
2018-10-06T10:06:04.945Z,40.10
2018-10-06T10:08:34.248Z,40.69
2018-10-06T10:11:03.694Z,41.36
2018-10-06T10:13:33.152Z,40.87
2018-10-06T10:16:02.494Z,41.07
2018-10-06T10:18:31.809Z,40.71
2018-10-06T10:21:01.236Z,40.79
2018-10-06T10:23:31.145Z,39.89
2018-10-06T10:26:00.573Z,40.90
2018-10-06T10:28:30.180Z,41.55
2018-10-06T10:30:59.681Z,39.80
2018-10-06T10:33:28.945Z,39.23
2018-10-06T10:35:58.384Z,38.78
2018-10-06T10:38:27.683Z,38.61
2018-10-06T10:40:57.152Z,39.06
2018-10-06T10:43:26.540Z,37.17
2018-10-06T10:45:55.994Z,37.94
2018-10-06T10:48:25.523Z,38.49
2018-10-06T10:50:55.317Z,39.05
2018-10-06T10:53:24.754Z,39.05
2018-10-06T10:55:54.319Z,38.98
2018-10-06T10:58:23.720Z,39.49
2018-10-06T11:00:53.179Z,39.39
2018-10-06T11:03:22.452Z,40.00
2018-10-06T11:05:51.923Z,38.79
2018-10-06T11:08:21.425Z,39.51
2018-10-06T11:10:50.932Z,40.09
2018-10-06T11:13:20.337Z,39.47
2018-10-06T11:15:49.839Z,39.14
2018-10-06T11:18:19.050Z,38.74
2018-10-06T11:20:48.538Z,39.72
2018-10-06T11:23:17.947Z,39.32
2018-10-06T11:25:47.548Z,38.55
2018-10-06T11:28:16.950Z,39.08
2018-10-06T11:30:46.554Z,38.75
2018-10-06T11:33:15.955Z,38.36
2018-10-06T11:35:45.236Z,38.40
2018-10-06T11:38:14.550Z,39.23
2018-10-06T11:40:43.951Z,39.01
2018-10-06T11:43:13.360Z,39.62
2018-10-06T11:45:42.864Z,38.87
2018-10-06T11:48:12.369Z,37.10
2018-10-06T11:50:41.868Z,38.57
2018-10-06T11:53:11.787Z,38.30
2018-10-06T11:55:42.213Z,38.18
2018-10-06T11:58:11.442Z,39.25
2018-10-06T12:00:40.942Z,38.28
2018-10-06T12:03:10.417Z,39.26
2018-10-06T12:05:39.932Z,39.07
2018-10-06T12:08:09.426Z,39.53
2018-10-06T12:10:38.751Z,38.72
2018-10-06T12:13:08.436Z,40.43
2018-10-06T12:15:37.837Z,39.51
2018-10-06T12:18:07.386Z,39.74
2018-10-06T12:20:37.003Z,38.94
2018-10-06T12:23:06.455Z,38.83
2018-10-06T12:25:35.854Z,39.49
2018-10-06T12:28:05.095Z,38.34
2018-10-06T12:30:34.660Z,39.01
2018-10-06T12:33:04.060Z,39.52
2018-10-06T12:35:33.588Z,38.68
2018-10-06T12:38:03.567Z,38.51
2018-10-06T12:40:33.644Z,37.96
2018-10-06T12:43:03.630Z,38.45
2018-10-06T12:45:33.898Z,39.02
2018-10-06T12:48:03.947Z,39.71
2018-10-06T12:50:33.765Z,39.89
2018-10-06T12:53:03.792Z,39.71
2018-10-06T12:55:34.229Z,40.01
2018-10-06T12:58:04.126Z,39.55
2018-10-06T13:00:34.314Z,41.16
2018-10-06T13:03:04.004Z,40.89
2018-10-06T13:05:33.863Z,41.75
2018-10-06T13:08:03.791Z,40.88
2018-10-06T13:10:33.794Z,40.84
2018-10-06T13:13:03.783Z,40.96
2018-10-06T13:15:33.726Z,40.86
2018-10-06T13:18:03.903Z,42.24
2018-10-06T13:20:34.084Z,40.86
2018-10-06T13:23:03.875Z,42.88
2018-10-06T13:25:33.608Z,42.94
2018-10-06T13:28:03.704Z,41.53
2018-10-06T13:30:34.083Z,41.84
2018-10-06T13:33:03.755Z,41.81
2018-10-06T13:35:33.343Z,42.47
2018-10-06T13:38:02.855Z,41.46
2018-10-06T13:40:32.471Z,41.46
2018-10-06T13:43:02.977Z,42.38
2018-10-06T13:45:32.793Z,42.67
2018-10-06T13:48:02.622Z,41.93
2018-10-06T13:50:32.793Z,42.19
2018-10-06T13:53:02.643Z,41.63
2018-10-06T13:55:32.562Z,42.12
2018-10-06T13:58:02.385Z,42.25
2018-10-06T14:00:32.241Z,42.59
2018-10-06T14:03:01.896Z,42.04
2018-10-06T14:05:31.844Z,42.97
2018-10-06T14:08:01.813Z,41.97
2018-10-06T14:10:31.855Z,41.06
2018-10-06T14:13:01.951Z,41.40
2018-10-06T14:15:31.914Z,41.49
2018-10-06T14:18:01.995Z,41.70
2018-10-06T14:20:31.947Z,41.56
2018-10-06T14:23:02.423Z,40.85
2018-10-06T14:25:32.088Z,40.59
2018-10-06T14:28:02.058Z,41.16
2018-10-06T14:30:31.971Z,41.67
2018-10-06T14:33:02.166Z,40.56
2018-10-06T14:35:32.166Z,41.36
2018-10-06T14:38:02.187Z,40.52
2018-10-06T14:40:31.934Z,40.74
2018-10-06T14:43:01.864Z,41.21
2018-10-06T14:45:32.001Z,40.88
2018-10-06T14:48:02.104Z,41.09
2018-10-06T14:50:31.515Z,40.87
2018-10-06T14:53:00.984Z,40.29
2018-10-06T14:55:30.498Z,40.12
2018-10-06T14:58:02.835Z,40.20
2018-10-06T15:00:33.481Z,41.14
2018-10-06T15:03:04.768Z,41.18
2018-10-06T15:05:35.411Z,40.25
2018-10-06T15:08:06.547Z,41.87
2018-10-06T15:10:37.088Z,40.29
2018-10-06T15:13:08.066Z,40.98
2018-10-06T15:15:38.645Z,41.11
2018-10-06T15:18:09.229Z,41.94
2018-10-06T15:20:38.740Z,40.79
2018-10-06T15:23:08.243Z,40.95
2018-10-06T15:25:37.645Z,41.82
2018-10-06T15:28:07.055Z,41.88
2018-10-06T15:30:36.556Z,41.91
2018-10-06T15:33:06.160Z,42.30
2018-10-06T15:35:35.364Z,42.70
2018-10-06T15:38:04.863Z,42.63
2018-10-06T15:40:34.363Z,43.35
2018-10-06T15:43:03.954Z,43.50
2018-10-06T15:45:33.376Z,44.32
2018-10-06T15:48:02.732Z,44.87
2018-10-06T15:50:32.485Z,43.82
2018-10-06T15:53:01.756Z,43.58
2018-10-06T15:55:31.186Z,44.49
2018-10-06T15:58:00.491Z,44.12
2018-10-06T16:00:29.801Z,44.12
2018-10-06T16:02:59.350Z,44.45
2018-10-06T16:05:28.795Z,44.71
2018-10-06T16:07:58.094Z,44.56
2018-10-06T16:10:27.496Z,45.19
2018-10-06T16:13:00.018Z,45.12
2018-10-06T16:15:29.578Z,44.79
2018-10-06T16:17:59.148Z,44.98
2018-10-06T16:20:28.586Z,46.12
2018-10-06T16:22:58.091Z,46.03
2018-10-06T16:25:27.394Z,46.24
2018-10-06T16:27:56.895Z,45.57
2018-10-06T16:30:26.449Z,45.52
2018-10-06T16:32:56.006Z,45.71
2018-10-06T16:35:25.510Z,45.90
2018-10-06T16:37:55.017Z,45.77
2018-10-06T16:40:24.518Z,46.02
2018-10-06T16:42:54.233Z,46.19
2018-10-06T16:45:23.699Z,46.54
2018-10-06T16:47:53.240Z,46.75
2018-10-06T16:50:22.845Z,47.11
2018-10-06T16:52:52.450Z,47.39
2018-10-06T16:55:22.058Z,47.28
2018-10-06T16:57:51.666Z,47.06
2018-10-06T17:00:21.085Z,47.06
2018-10-06T17:02:51.391Z,47.27
2018-10-06T17:05:20.894Z,47.88
2018-10-06T17:07:50.719Z,47.93
2018-10-06T17:10:19.898Z,48.48
2018-10-06T17:12:49.284Z,47.42
2018-10-06T17:15:18.912Z,48.04
2018-10-06T17:17:55.879Z,47.99
2018-10-06T17:20:25.499Z,48.57
2018-10-06T17:22:55.517Z,49.00
2018-10-06T17:25:24.967Z,48.70
2018-10-06T17:27:54.320Z,48.93
2018-10-06T17:30:23.824Z,48.63
2018-10-06T17:32:53.325Z,48.87
2018-10-06T17:35:22.833Z,49.02
2018-10-06T17:37:52.439Z,49.25
2018-10-06T17:40:21.845Z,49.01
2018-10-06T17:42:51.450Z,49.09
2018-10-06T17:45:20.951Z,49.47
2018-10-06T17:47:50.560Z,49.05
2018-10-06T17:50:20.305Z,50.29
2018-10-06T17:52:49.878Z,50.64
2018-10-06T17:55:19.362Z,50.48
2018-10-06T17:57:51.130Z,50.50
2018-10-06T18:00:22.095Z,50.74
2018-10-06T18:02:51.988Z,50.21
2018-10-06T18:05:21.397Z,50.27
2018-10-06T18:07:50.893Z,50.16
2018-10-06T18:10:20.250Z,50.70
2018-10-06T18:12:49.774Z,50.51
2018-10-06T18:15:19.317Z,50.72
2018-10-06T18:17:48.912Z,50.28
2018-10-06T18:20:18.677Z,51.03
2018-10-06T18:22:50.310Z,51.80
2018-10-06T18:25:19.985Z,52.18
2018-10-06T18:27:49.447Z,52.22
2018-10-06T18:30:19.098Z,52.05
2018-10-06T18:32:48.600Z,52.09
2018-10-06T18:35:18.107Z,52.54
2018-10-06T18:37:47.608Z,53.51
2018-10-06T18:40:17.318Z,54.43
2018-10-06T18:42:46.823Z,54.35
2018-10-06T18:45:16.800Z,55.66
2018-10-06T18:47:46.145Z,54.90
2018-10-06T18:50:15.511Z,55.87
2018-10-06T18:52:44.942Z,56.07
2018-10-06T18:55:14.447Z,55.88
2018-10-06T18:57:44.230Z,55.55
2018-10-06T19:00:19.908Z,55.94
2018-10-06T19:02:56.101Z,55.49
2018-10-06T19:05:25.571Z,55.31
2018-10-06T19:07:55.079Z,54.91
2018-10-06T19:10:24.521Z,55.12
2018-10-06T19:12:53.879Z,55.88
2018-10-06T19:15:23.393Z,55.48
2018-10-06T19:17:52.752Z,56.24
2018-10-06T19:20:22.291Z,57.04
2018-10-06T19:22:51.647Z,57.13
2018-10-06T19:25:21.197Z,57.69
2018-10-06T19:27:50.544Z,57.22
2018-10-06T19:30:20.304Z,56.92
2018-10-06T19:32:50.017Z,56.24
2018-10-06T19:35:19.488Z,55.78
2018-10-06T19:37:48.925Z,56.22
2018-10-06T19:40:18.294Z,56.22
2018-10-06T19:42:47.730Z,56.18
2018-10-06T19:45:16.981Z,56.63
2018-10-06T19:47:47.352Z,56.56
2018-10-06T19:50:17.059Z,56.67
2018-10-06T19:52:46.461Z,57.15
2018-10-06T19:55:16.169Z,57.42
2018-10-06T19:57:45.675Z,57.19
2018-10-06T20:00:15.002Z,56.86
2018-10-06T20:02:44.582Z,56.67
2018-10-06T20:05:13.982Z,56.80
2018-10-06T20:07:43.487Z,57.24
2018-10-06T20:10:12.787Z,57.51
2018-10-06T20:12:42.658Z,57.71
2018-10-06T20:15:12.004Z,57.29
2018-10-06T20:17:41.406Z,57.22
2018-10-06T20:20:11.009Z,57.21
2018-10-06T20:22:40.405Z,57.38
2018-10-06T20:25:09.763Z,57.12
2018-10-06T20:27:39.422Z,57.16
2018-10-06T20:30:09.129Z,57.13
2018-10-06T20:32:38.534Z,56.93
2018-10-06T20:35:11.111Z,56.67
2018-10-06T20:37:42.764Z,56.89
2018-10-06T20:40:12.189Z,57.29
2018-10-06T20:42:41.873Z,56.77
2018-10-06T20:45:11.276Z,56.47
2018-10-06T20:47:40.780Z,56.50
2018-10-06T20:50:10.181Z,56.75
2018-10-06T20:52:39.585Z,56.68
2018-10-06T20:55:08.986Z,56.57
2018-10-06T20:57:38.387Z,56.88
2018-10-06T21:00:08.965Z,57.04
2018-10-06T21:02:38.521Z,57.32
2018-10-06T21:05:08.027Z,57.61
2018-10-06T21:07:37.428Z,57.67
2018-10-06T21:10:06.830Z,57.87
2018-10-06T21:12:36.233Z,57.89
2018-10-06T21:15:06.713Z,58.14
2018-10-06T21:17:36.374Z,58.00
2018-10-06T21:20:05.977Z,58.46
2018-10-06T21:22:35.375Z,59.15
2018-10-06T21:25:04.658Z,59.42
2018-10-06T21:27:35.146Z,59.40
2018-10-06T21:30:04.914Z,59.86
2018-10-06T21:32:35.339Z,59.79
2018-10-06T21:35:04.844Z,59.60
2018-10-06T21:37:34.450Z,60.10
2018-10-06T21:40:03.956Z,60.43
2018-10-06T21:42:33.360Z,60.53
2018-10-06T21:45:02.867Z,60.49
2018-10-06T21:47:32.365Z,60.44
2018-10-06T21:50:01.775Z,60.54
2018-10-06T21:52:31.432Z,61.00
2018-10-06T21:55:00.777Z,60.90
2018-10-06T21:57:30.383Z,60.83
2018-10-06T21:59:59.886Z,60.45
2018-10-06T22:02:29.391Z,60.33
2018-10-06T22:04:58.895Z,60.08
2018-10-06T22:07:28.501Z,60.17
2018-10-06T22:09:57.801Z,58.61
2018-10-06T22:12:27.307Z,58.02
2018-10-06T22:14:56.912Z,59.16
2018-10-06T22:17:26.314Z,59.99
2018-10-06T22:19:55.922Z,60.54
2018-10-06T22:24:45.507Z,62.04
2018-10-06T22:27:14.816Z,61.69
2018-10-06T22:29:45.441Z,61.41
2018-10-06T22:32:15.150Z,61.31
2018-10-06T22:34:44.628Z,61.43
2018-10-06T22:37:14.055Z,61.95
2018-10-06T22:39:43.429Z,62.37
2018-10-06T22:42:12.959Z,62.33
2018-10-06T22:44:43.284Z,62.23
2018-10-06T22:47:12.788Z,62.72
2018-10-06T22:49:42.291Z,62.87
2018-10-06T22:52:11.763Z,62.96
2018-10-06T22:54:41.199Z,63.07
2018-10-06T22:57:10.644Z,62.70
2018-10-06T22:59:40.206Z,62.79
2018-10-06T23:02:09.407Z,63.04
2018-10-06T23:04:38.868Z,63.23
2018-10-06T23:07:08.310Z,63.42
2018-10-06T23:09:37.623Z,63.35
2018-10-06T23:12:07.140Z,63.00
2018-10-06T23:14:36.612Z,62.99
2018-10-06T23:17:06.121Z,63.45
2018-10-06T23:19:35.460Z,63.29
2018-10-06T23:22:04.924Z,63.37
2018-10-06T23:24:34.527Z,62.37
2018-10-06T23:27:04.242Z,62.54
2018-10-06T23:29:33.746Z,63.74
2018-10-06T23:32:03.068Z,64.14
2018-10-06T23:34:32.552Z,64.64
2018-10-06T23:37:02.037Z,64.17
2018-10-06T23:39:31.457Z,64.23
2018-10-06T23:42:00.961Z,64.13
2018-10-06T23:44:30.177Z,64.08
2018-10-06T23:46:59.559Z,63.96
2018-10-06T23:49:28.861Z,64.09
2018-10-06T23:51:58.261Z,64.68
2018-10-06T23:54:27.663Z,64.78
2018-10-06T23:56:56.915Z,65.03
2018-10-06T23:59:26.365Z,64.89
